sensor_id;sensor_type;location;lat;lon;timestamp;pressure;altitude;pressure_sealevel;temperature;humidity
27984;BME280;15317;50.360;8.726;2022-10-31T00:00:40;99937.22;;;10.78;100.00
27984;BME280;15317;50.360;8.726;2022-10-31T00:04:42;99946.22;;;10.79;100.00
27984;BME280;15317;50.360;8.726;2022-10-31T00:08:45;99940.78;;;10.79;100.00
27984;BME280;15317;50.360;8.726;2022-10-31T00:12:47;99939.94;;;10.78;100.00
27984;BME280;15317;50.360;8.726;2022-10-31T00:16:49;99947.81;;;10.81;100.00
27984;BME280;15317;50.360;8.726;2022-10-31T00:20:58;99942.22;;;10.83;100.00
27984;BME280;15317;50.360;8.726;2022-10-31T00:25:02;99953.81;;;10.85;100.00
27984;BME280;15317;50.360;8.726;2022-10-31T00:29:05;99946.66;;;10.84;100.00
27984;BME280;15317;50.360;8.726;2022-10-31T00:33:07;99948.66;;;10.82;100.00
27984;BME280;15317;50.360;8.726;2022-10-31T00:37:09;99957.81;;;10.81;100.00
27984;BME280;15317;50.360;8.726;2022-10-31T00:41:14;99954.69;;;10.76;100.00
27984;BME280;15317;50.360;8.726;2022-10-31T00:45:16;99963.13;;;10.73;100.00
27984;BME280;15317;50.360;8.726;2022-10-31T00:49:18;99957.31;;;10.67;100.00
27984;BME280;15317;50.360;8.726;2022-10-31T00:53:20;99963.34;;;10.61;100.00
27984;BME280;15317;50.360;8.726;2022-10-31T00:57:24;99960.34;;;10.55;100.00
27984;BME280;15317;50.360;8.726;2022-10-31T01:01:26;99962.50;;;10.51;100.00
27984;BME280;15317;50.360;8.726;2022-10-31T01:05:28;99962.81;;;10.48;100.00
27984;BME280;15317;50.360;8.726;2022-10-31T01:09:31;99968.25;;;10.48;100.00
27984;BME280;15317;50.360;8.726;2022-10-31T01:13:35;99975.38;;;10.49;100.00
27984;BME280;15317;50.360;8.726;2022-10-31T01:17:37;99972.81;;;10.48;100.00
27984;BME280;15317;50.360;8.726;2022-10-31T01:21:39;99954.81;;;10.47;100.00
27984;BME280;15317;50.360;8.726;2022-10-31T01:25:41;99963.09;;;10.45;100.00
27984;BME280;15317;50.360;8.726;2022-10-31T01:29:44;99952.22;;;10.45;100.00
27984;BME280;15317;50.360;8.726;2022-10-31T01:33:46;99960.53;;;10.44;100.00
27984;BME280;15317;50.360;8.726;2022-10-31T01:37:48;99960.97;;;10.39;100.00
27984;BME280;15317;50.360;8.726;2022-10-31T01:41:53;99951.56;;;10.34;100.00
27984;BME280;15317;50.360;8.726;2022-10-31T01:45:56;99953.00;;;10.28;100.00
27984;BME280;15317;50.360;8.726;2022-10-31T01:50:00;99947.16;;;10.23;100.00
27984;BME280;15317;50.360;8.726;2022-10-31T01:54:07;99953.88;;;10.19;100.00
27984;BME280;15317;50.360;8.726;2022-10-31T01:58:13;99949.00;;;10.13;100.00
27984;BME280;15317;50.360;8.726;2022-10-31T02:02:17;99951.00;;;10.11;100.00
27984;BME280;15317;50.360;8.726;2022-10-31T02:06:27;99951.00;;;10.11;100.00
27984;BME280;15317;50.360;8.726;2022-10-31T02:10:34;99943.03;;;10.09;100.00
27984;BME280;15317;50.360;8.726;2022-10-31T02:14:37;99948.28;;;10.11;100.00
27984;BME280;15317;50.360;8.726;2022-10-31T02:18:41;99950.00;;;10.12;100.00
27984;BME280;15317;50.360;8.726;2022-10-31T02:23:00;99949.31;;;10.10;100.00
27984;BME280;15317;50.360;8.726;2022-10-31T02:27:14;99939.44;;;10.09;100.00
27984;BME280;15317;50.360;8.726;2022-10-31T02:31:28;99936.56;;;10.10;100.00
27984;BME280;15317;50.360;8.726;2022-10-31T02:35:40;99935.56;;;10.11;100.00
27984;BME280;15317;50.360;8.726;2022-10-31T02:39:50;99935.75;;;10.10;100.00
27984;BME280;15317;50.360;8.726;2022-10-31T02:44:02;99944.00;;;10.08;100.00
27984;BME280;15317;50.360;8.726;2022-10-31T02:48:10;99934.03;;;10.09;100.00
27984;BME280;15317;50.360;8.726;2022-10-31T02:52:17;99939.13;;;10.12;100.00
27984;BME280;15317;50.360;8.726;2022-10-31T02:56:20;99936.28;;;10.13;100.00
27984;BME280;15317;50.360;8.726;2022-10-31T03:00:22;99937.00;;;10.15;100.00
27984;BME280;15317;50.360;8.726;2022-10-31T03:09:09;99934.28;;;10.25;100.00
27984;BME280;15317;50.360;8.726;2022-10-31T03:13:20;99934.28;;;10.25;100.00
27984;BME280;15317;50.360;8.726;2022-10-31T03:17:27;99934.72;;;10.20;100.00
27984;BME280;15317;50.360;8.726;2022-10-31T03:21:36;99939.31;;;10.20;100.00
27984;BME280;15317;50.360;8.726;2022-10-31T03:25:43;99940.84;;;10.13;100.00
27984;BME280;15317;50.360;8.726;2022-10-31T03:29:47;99937.72;;;10.08;100.00
27984;BME280;15317;50.360;8.726;2022-10-31T03:33:51;99934.03;;;9.99;100.00
27984;BME280;15317;50.360;8.726;2022-10-31T03:37:54;99932.75;;;9.94;100.00
27984;BME280;15317;50.360;8.726;2022-10-31T03:42:02;99934.34;;;9.86;100.00
27984;BME280;15317;50.360;8.726;2022-10-31T03:46:07;99933.06;;;9.81;100.00
27984;BME280;15317;50.360;8.726;2022-10-31T03:50:11;99930.06;;;9.74;100.00
27984;BME280;15317;50.360;8.726;2022-10-31T03:54:20;99927.75;;;9.70;100.00
27984;BME280;15317;50.360;8.726;2022-10-31T03:58:28;99932.03;;;9.63;100.00
27984;BME280;15317;50.360;8.726;2022-10-31T04:02:35;99930.63;;;9.59;100.00
27984;BME280;15317;50.360;8.726;2022-10-31T04:06:42;99924.66;;;9.55;100.00
27984;BME280;15317;50.360;8.726;2022-10-31T04:10:48;99921.22;;;9.53;100.00
27984;BME280;15317;50.360;8.726;2022-10-31T04:14:52;99919.78;;;9.49;100.00
27984;BME280;15317;50.360;8.726;2022-10-31T04:18:56;99923.50;;;9.48;100.00
27984;BME280;15317;50.360;8.726;2022-10-31T04:22:59;99922.91;;;9.44;100.00
27984;BME280;15317;50.360;8.726;2022-10-31T04:27:01;99920.34;;;9.43;100.00
27984;BME280;15317;50.360;8.726;2022-10-31T04:31:04;99929.47;;;9.42;100.00
27984;BME280;15317;50.360;8.726;2022-10-31T04:35:07;99936.91;;;9.40;100.00
27984;BME280;15317;50.360;8.726;2022-10-31T04:39:09;99925.34;;;9.38;100.00
27984;BME280;15317;50.360;8.726;2022-10-31T04:43:11;99935.19;;;9.39;100.00
27984;BME280;15317;50.360;8.726;2022-10-31T04:47:14;99941.03;;;9.44;100.00
27984;BME280;15317;50.360;8.726;2022-10-31T04:51:16;99945.03;;;9.49;100.00
27984;BME280;15317;50.360;8.726;2022-10-31T04:55:18;99946.91;;;9.59;100.00
27984;BME280;15317;50.360;8.726;2022-10-31T04:59:20;99942.91;;;9.63;100.00
27984;BME280;15317;50.360;8.726;2022-10-31T05:03:24;99944.47;;;9.65;100.00
27984;BME280;15317;50.360;8.726;2022-10-31T05:07:26;99937.63;;;9.61;100.00
27984;BME280;15317;50.360;8.726;2022-10-31T05:11:28;99946.03;;;9.58;100.00
27984;BME280;15317;50.360;8.726;2022-10-31T05:15:30;99934.47;;;9.56;100.00
27984;BME280;15317;50.360;8.726;2022-10-31T05:19:33;99939.34;;;9.52;100.00
27984;BME280;15317;50.360;8.726;2022-10-31T05:23:35;99929.75;;;9.48;100.00
27984;BME280;15317;50.360;8.726;2022-10-31T05:27:39;99932.63;;;9.47;100.00
27984;BME280;15317;50.360;8.726;2022-10-31T05:31:41;99930.91;;;9.46;100.00
27984;BME280;15317;50.360;8.726;2022-10-31T05:35:44;99931.19;;;9.43;100.00
27984;BME280;15317;50.360;8.726;2022-10-31T05:39:46;99926.75;;;9.42;100.00
27984;BME280;15317;50.360;8.726;2022-10-31T05:43:48;99918.34;;;9.45;100.00
27984;BME280;15317;50.360;8.726;2022-10-31T05:47:51;99918.09;;;9.48;100.00
27984;BME280;15317;50.360;8.726;2022-10-31T05:51:55;99923.94;;;9.53;100.00
27984;BME280;15317;50.360;8.726;2022-10-31T05:55:57;99916.78;;;9.71;100.00
27984;BME280;15317;50.360;8.726;2022-10-31T05:59:59;99920.34;;;9.81;100.00
27984;BME280;15317;50.360;8.726;2022-10-31T06:04:01;99911.75;;;9.96;100.00
27984;BME280;15317;50.360;8.726;2022-10-31T06:08:05;99912.91;;;10.03;100.00
27984;BME280;15317;50.360;8.726;2022-10-31T06:12:07;99915.88;;;10.00;100.00
27984;BME280;15317;50.360;8.726;2022-10-31T06:16:09;99919.59;;;9.99;100.00
27984;BME280;15317;50.360;8.726;2022-10-31T06:20:11;99913.44;;;9.97;100.00
27984;BME280;15317;50.360;8.726;2022-10-31T06:24:14;99915.16;;;9.98;100.00
27984;BME280;15317;50.360;8.726;2022-10-31T06:28:16;99916.75;;;10.00;100.00
27984;BME280;15317;50.360;8.726;2022-10-31T06:32:19;99920.31;;;10.01;100.00
27984;BME280;15317;50.360;8.726;2022-10-31T06:36:21;99924.31;;;10.06;100.00
27984;BME280;15317;50.360;8.726;2022-10-31T06:40:24;99923.44;;;10.06;100.00
27984;BME280;15317;50.360;8.726;2022-10-31T06:44:26;99931.00;;;10.12;100.00
27984;BME280;15317;50.360;8.726;2022-10-31T06:48:28;99933.16;;;10.18;100.00
27984;BME280;15317;50.360;8.726;2022-10-31T06:52:31;99925.44;;;10.23;100.00
27984;BME280;15317;50.360;8.726;2022-10-31T06:56:34;99937.72;;;10.27;100.00
27984;BME280;15317;50.360;8.726;2022-10-31T07:00:36;99937.97;;;10.34;100.00
27984;BME280;15317;50.360;8.726;2022-10-31T07:04:38;99933.41;;;10.34;100.00
27984;BME280;15317;50.360;8.726;2022-10-31T07:08:40;99943.38;;;10.43;100.00
27984;BME280;15317;50.360;8.726;2022-10-31T07:12:44;99940.47;;;10.54;100.00
27984;BME280;15317;50.360;8.726;2022-10-31T07:16:48;99944.31;;;10.61;100.00
27984;BME280;15317;50.360;8.726;2022-10-31T07:20:51;99955.31;;;10.69;100.00
27984;BME280;15317;50.360;8.726;2022-10-31T07:24:53;99947.84;;;10.72;100.00
27984;BME280;15317;50.360;8.726;2022-10-31T07:28:57;99949.44;;;10.92;100.00
27984;BME280;15317;50.360;8.726;2022-10-31T07:32:59;99945.31;;;10.97;100.00
27984;BME280;15317;50.360;8.726;2022-10-31T07:37:01;99944.22;;;11.08;100.00
27984;BME280;15317;50.360;8.726;2022-10-31T07:41:04;99952.59;;;11.42;100.00
27984;BME280;15317;50.360;8.726;2022-10-31T07:45:09;99946.31;;;11.95;100.00
27984;BME280;15317;50.360;8.726;2022-10-31T07:49:11;99947.81;;;12.33;100.00
27984;BME280;15317;50.360;8.726;2022-10-31T07:53:14;99939.88;;;12.73;100.00
27984;BME280;15317;50.360;8.726;2022-10-31T07:57:16;99943.09;;;13.11;100.00
27984;BME280;15317;50.360;8.726;2022-10-31T08:01:19;99942.41;;;13.51;100.00
27984;BME280;15317;50.360;8.726;2022-10-31T08:05:21;99950.28;;;13.70;100.00
27984;BME280;15317;50.360;8.726;2022-10-31T08:09:23;99949.44;;;14.02;100.00
27984;BME280;15317;50.360;8.726;2022-10-31T08:13:25;99951.13;;;14.27;100.00
27984;BME280;15317;50.360;8.726;2022-10-31T08:17:29;99951.78;;;14.61;100.00
27984;BME280;15317;50.360;8.726;2022-10-31T08:21:31;99950.59;;;15.11;100.00
27984;BME280;15317;50.360;8.726;2022-10-31T08:25:34;99945.09;;;15.19;100.00
27984;BME280;15317;50.360;8.726;2022-10-31T08:29:36;99948.09;;;15.63;100.00
27984;BME280;15317;50.360;8.726;2022-10-31T08:33:40;99938.25;;;16.00;100.00
27984;BME280;15317;50.360;8.726;2022-10-31T08:37:42;99948.00;;;16.02;99.03
27984;BME280;15317;50.360;8.726;2022-10-31T08:41:44;99942.59;;;16.32;97.08
27984;BME280;15317;50.360;8.726;2022-10-31T08:45:48;99937.19;;;16.61;94.82
27984;BME280;15317;50.360;8.726;2022-10-31T08:49:52;99935.31;;;16.76;93.04
27984;BME280;15317;50.360;8.726;2022-10-31T08:53:54;99935.50;;;17.19;92.43
27984;BME280;15317;50.360;8.726;2022-10-31T08:57:56;99939.97;;;17.41;87.78
27984;BME280;15317;50.360;8.726;2022-10-31T09:01:59;99942.63;;;17.85;87.18
27984;BME280;15317;50.360;8.726;2022-10-31T09:06:03;99935.72;;;17.96;84.93
27984;BME280;15317;50.360;8.726;2022-10-31T09:10:09;99938.59;;;18.09;84.48
27984;BME280;15317;50.360;8.726;2022-10-31T09:14:11;99938.88;;;18.35;82.63
27984;BME280;15317;50.360;8.726;2022-10-31T09:18:15;99933.13;;;18.37;81.67
27984;BME280;15317;50.360;8.726;2022-10-31T09:22:19;99924.56;;;18.46;82.78
27984;BME280;15317;50.360;8.726;2022-10-31T09:26:21;99925.72;;;18.09;82.19
27984;BME280;15317;50.360;8.726;2022-10-31T09:30:23;99920.56;;;18.49;82.12
27984;BME280;15317;50.360;8.726;2022-10-31T09:34:25;99921.31;;;18.64;81.09
27984;BME280;15317;50.360;8.726;2022-10-31T09:38:29;99918.97;;;18.61;81.77
27984;BME280;15317;50.360;8.726;2022-10-31T09:42:42;99915.53;;;18.31;83.63
27984;BME280;15317;50.360;8.726;2022-10-31T09:46:52;99915.78;;;18.58;83.12
27984;BME280;15317;50.360;8.726;2022-10-31T09:51:00;99915.53;;;18.87;81.58
27984;BME280;15317;50.360;8.726;2022-10-31T09:55:14;99902.56;;;18.46;83.49
27984;BME280;15317;50.360;8.726;2022-10-31T09:59:24;99905.97;;;18.48;83.55
27984;BME280;15317;50.360;8.726;2022-10-31T10:03:32;99896.84;;;18.20;84.96
27984;BME280;15317;50.360;8.726;2022-10-31T10:07:44;99900.47;;;17.99;86.95
27984;BME280;15317;50.360;8.726;2022-10-31T10:11:57;99893.69;;;17.38;89.85
27984;BME280;15317;50.360;8.726;2022-10-31T10:16:12;99889.75;;;17.47;89.64
27984;BME280;15317;50.360;8.726;2022-10-31T10:20:24;99888.69;;;17.27;91.17
27984;BME280;15317;50.360;8.726;2022-10-31T10:24:43;99889.38;;;17.50;91.28
27984;BME280;15317;50.360;8.726;2022-10-31T10:28:56;99888.38;;;17.72;89.35
27984;BME280;15317;50.360;8.726;2022-10-31T10:33:02;99887.84;;;17.62;87.01
27984;BME280;15317;50.360;8.726;2022-10-31T10:37:12;99890.84;;;17.67;85.63
27984;BME280;15317;50.360;8.726;2022-10-31T10:41:19;99881.19;;;17.71;84.99
27984;BME280;15317;50.360;8.726;2022-10-31T10:45:23;99883.94;;;17.93;86.69
27984;BME280;15317;50.360;8.726;2022-10-31T10:49:48;99870.69;;;18.03;85.39
27984;BME280;15317;50.360;8.726;2022-10-31T10:54:03;99872.34;;;17.76;84.67
27984;BME280;15317;50.360;8.726;2022-10-31T10:58:14;99868.13;;;17.73;83.79
27984;BME280;15317;50.360;8.726;2022-10-31T11:02:19;99859.22;;;17.71;84.40
27984;BME280;15317;50.360;8.726;2022-10-31T11:06:23;99849.47;;;17.54;84.56
27984;BME280;15317;50.360;8.726;2022-10-31T11:10:27;99849.56;;;17.40;84.99
27984;BME280;15317;50.360;8.726;2022-10-31T11:14:29;99845.06;;;17.53;85.97
27984;BME280;15317;50.360;8.726;2022-10-31T11:18:34;99838.66;;;17.67;85.62
27984;BME280;15317;50.360;8.726;2022-10-31T11:22:39;99831.59;;;17.58;85.44
27984;BME280;15317;50.360;8.726;2022-10-31T11:26:42;99824.38;;;17.57;85.32
27984;BME280;15317;50.360;8.726;2022-10-31T11:30:46;99823.81;;;17.83;84.49
27984;BME280;15317;50.360;8.726;2022-10-31T11:34:53;99825.81;;;17.74;85.93
27984;BME280;15317;50.360;8.726;2022-10-31T11:38:57;99814.72;;;17.61;85.93
27984;BME280;15317;50.360;8.726;2022-10-31T11:43:01;99811.72;;;17.77;85.42
27984;BME280;15317;50.360;8.726;2022-10-31T11:47:05;99800.56;;;17.86;85.71
27984;BME280;15317;50.360;8.726;2022-10-31T11:51:08;99781.09;;;17.59;83.97
27984;BME280;15317;50.360;8.726;2022-10-31T11:55:16;99790.81;;;17.83;85.08
27984;BME280;15317;50.360;8.726;2022-10-31T11:59:25;99781.72;;;17.83;85.17
27984;BME280;15317;50.360;8.726;2022-10-31T12:03:43;99774.84;;;17.93;85.20
27984;BME280;15317;50.360;8.726;2022-10-31T12:07:51;99771.19;;;18.14;84.69
27984;BME280;15317;50.360;8.726;2022-10-31T12:12:12;99759.78;;;18.17;84.75
27984;BME280;15317;50.360;8.726;2022-10-31T12:16:20;99754.59;;;18.35;83.49
27984;BME280;15317;50.360;8.726;2022-10-31T12:20:31;99748.84;;;18.30;83.36
27984;BME280;15317;50.360;8.726;2022-10-31T12:24:58;99750.97;;;17.94;83.13
27984;BME280;15317;50.360;8.726;2022-10-31T12:29:18;99733.06;;;18.04;83.08
27984;BME280;15317;50.360;8.726;2022-10-31T12:33:35;99734.03;;;18.25;82.19
27984;BME280;15317;50.360;8.726;2022-10-31T12:37:47;99733.28;;;18.09;79.91
27984;BME280;15317;50.360;8.726;2022-10-31T12:41:58;99728.34;;;18.33;81.12
27984;BME280;15317;50.360;8.726;2022-10-31T12:46:09;99729.25;;;18.46;81.21
27984;BME280;15317;50.360;8.726;2022-10-31T12:50:34;99721.53;;;18.29;79.89
27984;BME280;15317;50.360;8.726;2022-10-31T12:54:50;99711.66;;;18.34;79.97
27984;BME280;15317;50.360;8.726;2022-10-31T12:58:59;99707.88;;;18.35;81.02
27984;BME280;15317;50.360;8.726;2022-10-31T13:03:14;99704.91;;;18.43;79.92
27984;BME280;15317;50.360;8.726;2022-10-31T13:07:23;99712.59;;;18.54;79.13
27984;BME280;15317;50.360;8.726;2022-10-31T13:11:30;99694.63;;;18.59;85.68
27984;BME280;15317;50.360;8.726;2022-10-31T13:15:45;99666.97;;;18.80;85.84
27984;BME280;15317;50.360;8.726;2022-10-31T13:19:50;99651.28;;;18.61;79.91
27984;BME280;15317;50.360;8.726;2022-10-31T13:23:57;99655.41;;;18.50;81.46
27984;BME280;15317;50.360;8.726;2022-10-31T13:28:03;99651.28;;;18.61;82.60
27984;BME280;15317;50.360;8.726;2022-10-31T13:32:10;99646.16;;;18.58;83.69
27984;BME280;15317;50.360;8.726;2022-10-31T13:36:20;99630.25;;;18.46;82.39
27984;BME280;15317;50.360;8.726;2022-10-31T13:40:34;99627.91;;;18.43;81.89
27984;BME280;15317;50.360;8.726;2022-10-31T13:44:37;99615.84;;;18.44;82.29
27984;BME280;15317;50.360;8.726;2022-10-31T13:48:40;99618.19;;;18.47;85.13
27984;BME280;15317;50.360;8.726;2022-10-31T13:52:43;99615.63;;;18.39;85.91
27984;BME280;15317;50.360;8.726;2022-10-31T13:56:48;99607.75;;;18.23;87.81
27984;BME280;15317;50.360;8.726;2022-10-31T14:01:11;99602.50;;;18.28;88.27
27984;BME280;15317;50.360;8.726;2022-10-31T14:05:22;99606.66;;;18.17;88.46
27984;BME280;15317;50.360;8.726;2022-10-31T14:09:28;99606.03;;;18.15;89.71
27984;BME280;15317;50.360;8.726;2022-10-31T14:13:34;99605.59;;;18.12;88.94
27984;BME280;15317;50.360;8.726;2022-10-31T14:17:45;99596.09;;;18.08;89.71
27984;BME280;15317;50.360;8.726;2022-10-31T14:21:50;99599.88;;;18.07;90.23
27984;BME280;15317;50.360;8.726;2022-10-31T14:25:52;99595.19;;;18.01;91.54
27984;BME280;15317;50.360;8.726;2022-10-31T14:29:54;99587.34;;;17.98;93.27
27984;BME280;15317;50.360;8.726;2022-10-31T14:33:56;99581.16;;;17.83;93.63
27984;BME280;15317;50.360;8.726;2022-10-31T14:38:08;99568.41;;;17.68;95.40
27984;BME280;15317;50.360;8.726;2022-10-31T14:42:26;99572.75;;;17.56;97.90
27984;BME280;15317;50.360;8.726;2022-10-31T14:46:42;99567.19;;;17.43;100.00
27984;BME280;15317;50.360;8.726;2022-10-31T14:50:50;99555.94;;;17.31;100.00
27984;BME280;15317;50.360;8.726;2022-10-31T14:54:56;99538.75;;;17.23;100.00
27984;BME280;15317;50.360;8.726;2022-10-31T14:59:01;99538.91;;;17.15;100.00
27984;BME280;15317;50.360;8.726;2022-10-31T15:03:09;99548.84;;;17.16;100.00
27984;BME280;15317;50.360;8.726;2022-10-31T15:07:17;99562.31;;;17.11;100.00
27984;BME280;15317;50.360;8.726;2022-10-31T15:11:23;99573.88;;;17.06;100.00
27984;BME280;15317;50.360;8.726;2022-10-31T15:15:26;99559.47;;;16.97;100.00
27984;BME280;15317;50.360;8.726;2022-10-31T15:19:30;99550.97;;;16.92;100.00
27984;BME280;15317;50.360;8.726;2022-10-31T15:23:35;99560.22;;;16.85;100.00
27984;BME280;15317;50.360;8.726;2022-10-31T15:27:40;99552.84;;;16.85;100.00
27984;BME280;15317;50.360;8.726;2022-10-31T15:31:49;99541.22;;;16.83;100.00
27984;BME280;15317;50.360;8.726;2022-10-31T15:35:56;99540.50;;;16.75;100.00
27984;BME280;15317;50.360;8.726;2022-10-31T15:40:06;99527.97;;;16.66;100.00
27984;BME280;15317;50.360;8.726;2022-10-31T15:44:14;99516.00;;;16.52;100.00
27984;BME280;15317;50.360;8.726;2022-10-31T15:48:18;99529.34;;;16.34;100.00
27984;BME280;15317;50.360;8.726;2022-10-31T15:52:28;99543.50;;;16.16;100.00
27984;BME280;15317;50.360;8.726;2022-10-31T15:56:31;99533.16;;;15.97;100.00
27984;BME280;15317;50.360;8.726;2022-10-31T16:00:37;99537.53;;;15.76;100.00
27984;BME280;15317;50.360;8.726;2022-10-31T16:04:49;99527.69;;;15.61;100.00
27984;BME280;15317;50.360;8.726;2022-10-31T16:08:51;99523.72;;;15.49;100.00
27984;BME280;15317;50.360;8.726;2022-10-31T16:12:54;99523.13;;;15.38;100.00
27984;BME280;15317;50.360;8.726;2022-10-31T16:16:58;99523.91;;;15.32;100.00
27984;BME280;15317;50.360;8.726;2022-10-31T16:21:03;99526.53;;;15.26;100.00
27984;BME280;15317;50.360;8.726;2022-10-31T16:25:10;99513.81;;;15.18;100.00
27984;BME280;15317;50.360;8.726;2022-10-31T16:29:25;99513.53;;;15.13;100.00
27984;BME280;15317;50.360;8.726;2022-10-31T16:33:29;99501.47;;;15.08;100.00
27984;BME280;15317;50.360;8.726;2022-10-31T16:37:34;99492.75;;;15.04;100.00
27984;BME280;15317;50.360;8.726;2022-10-31T16:41:40;99487.69;;;15.01;100.00
27984;BME280;15317;50.360;8.726;2022-10-31T16:45:43;99459.00;;;14.97;100.00
27984;BME280;15317;50.360;8.726;2022-10-31T16:49:48;99425.81;;;15.00;100.00
27984;BME280;15317;50.360;8.726;2022-10-31T16:53:51;99423.25;;;14.98;100.00
27984;BME280;15317;50.360;8.726;2022-10-31T16:57:55;99422.41;;;14.98;100.00
27984;BME280;15317;50.360;8.726;2022-10-31T17:01:58;99425.59;;;15.01;100.00
27984;BME280;15317;50.360;8.726;2022-10-31T17:06:02;99416.56;;;15.01;100.00
27984;BME280;15317;50.360;8.726;2022-10-31T17:10:05;99412.31;;;14.98;100.00
27984;BME280;15317;50.360;8.726;2022-10-31T17:14:08;99406.75;;;14.92;100.00
27984;BME280;15317;50.360;8.726;2022-10-31T17:18:11;99394.69;;;14.86;100.00
27984;BME280;15317;50.360;8.726;2022-10-31T17:22:15;99390.63;;;14.82;100.00
27984;BME280;15317;50.360;8.726;2022-10-31T17:26:18;99389.06;;;14.73;100.00
27984;BME280;15317;50.360;8.726;2022-10-31T17:30:21;99399.22;;;14.65;100.00
27984;BME280;15317;50.360;8.726;2022-10-31T17:34:24;99422.47;;;14.60;100.00
27984;BME280;15317;50.360;8.726;2022-10-31T17:38:27;99443.22;;;14.55;100.00
27984;BME280;15317;50.360;8.726;2022-10-31T17:42:29;99426.72;;;14.48;100.00
27984;BME280;15317;50.360;8.726;2022-10-31T17:46:31;99429.16;;;14.43;100.00
27984;BME280;15317;50.360;8.726;2022-10-31T17:50:33;99417.09;;;14.38;100.00
27984;BME280;15317;50.360;8.726;2022-10-31T17:54:37;99412.53;;;14.30;100.00
27984;BME280;15317;50.360;8.726;2022-10-31T17:58:39;99411.56;;;14.23;100.00
27984;BME280;15317;50.360;8.726;2022-10-31T18:02:41;99437.06;;;14.15;100.00
27984;BME280;15317;50.360;8.726;2022-10-31T18:06:43;99442.44;;;14.09;100.00
27984;BME280;15317;50.360;8.726;2022-10-31T18:10:46;99426.41;;;14.06;100.00
27984;BME280;15317;50.360;8.726;2022-10-31T18:14:49;99420.34;;;13.96;100.00
27984;BME280;15317;50.360;8.726;2022-10-31T18:18:52;99412.50;;;13.93;100.00
27984;BME280;15317;50.360;8.726;2022-10-31T18:22:55;99401.28;;;13.88;100.00
27984;BME280;15317;50.360;8.726;2022-10-31T18:26:59;99399.13;;;13.83;100.00
27984;BME280;15317;50.360;8.726;2022-10-31T18:31:01;99403.22;;;13.79;100.00
27984;BME280;15317;50.360;8.726;2022-10-31T18:35:04;99384.69;;;13.74;100.00
27984;BME280;15317;50.360;8.726;2022-10-31T18:39:06;99377.56;;;13.65;100.00
27984;BME280;15317;50.360;8.726;2022-10-31T18:43:09;99366.75;;;13.57;100.00
27984;BME280;15317;50.360;8.726;2022-10-31T18:47:11;99376.69;;;13.50;100.00
27984;BME280;15317;50.360;8.726;2022-10-31T18:51:13;99364.13;;;13.41;100.00
27984;BME280;15317;50.360;8.726;2022-10-31T18:55:18;99377.81;;;13.33;100.00
27984;BME280;15317;50.360;8.726;2022-10-31T18:59:21;99365.25;;;13.24;100.00
27984;BME280;15317;50.360;8.726;2022-10-31T19:03:23;99357.13;;;13.16;100.00
27984;BME280;15317;50.360;8.726;2022-10-31T19:07:25;99354.25;;;13.09;100.00
27984;BME280;15317;50.360;8.726;2022-10-31T19:11:30;99345.25;;;13.00;100.00
27984;BME280;15317;50.360;8.726;2022-10-31T19:15:35;99357.56;;;12.96;100.00
27984;BME280;15317;50.360;8.726;2022-10-31T19:19:37;99352.09;;;12.96;100.00
27984;BME280;15317;50.360;8.726;2022-10-31T19:23:40;99369.66;;;12.94;100.00
27984;BME280;15317;50.360;8.726;2022-10-31T19:27:42;99370.84;;;12.91;100.00
27984;BME280;15317;50.360;8.726;2022-10-31T19:31:45;99381.09;;;12.89;100.00
27984;BME280;15317;50.360;8.726;2022-10-31T19:35:48;99384.00;;;12.88;100.00
27984;BME280;15317;50.360;8.726;2022-10-31T19:39:50;99390.97;;;12.90;100.00
27984;BME280;15317;50.360;8.726;2022-10-31T19:43:53;99389.63;;;12.86;100.00
27984;BME280;15317;50.360;8.726;2022-10-31T19:47:56;99393.38;;;12.85;100.00
27984;BME280;15317;50.360;8.726;2022-10-31T19:51:58;99387.25;;;12.83;100.00
27984;BME280;15317;50.360;8.726;2022-10-31T19:56:01;99387.78;;;12.79;100.00
27984;BME280;15317;50.360;8.726;2022-10-31T20:00:04;99388.16;;;12.76;100.00
27984;BME280;15317;50.360;8.726;2022-10-31T20:04:07;99386.09;;;12.70;100.00
27984;BME280;15317;50.360;8.726;2022-10-31T20:08:12;99383.22;;;12.63;100.00
27984;BME280;15317;50.360;8.726;2022-10-31T20:12:15;99382.22;;;12.56;100.00
27984;BME280;15317;50.360;8.726;2022-10-31T20:16:17;99372.72;;;12.52;100.00
27984;BME280;15317;50.360;8.726;2022-10-31T20:20:20;99383.28;;;12.47;100.00
27984;BME280;15317;50.360;8.726;2022-10-31T20:24:22;99391.63;;;12.45;100.00
27984;BME280;15317;50.360;8.726;2022-10-31T20:28:25;99398.28;;;12.43;100.00
27984;BME280;15317;50.360;8.726;2022-10-31T20:32:27;99390.78;;;12.45;100.00
27984;BME280;15317;50.360;8.726;2022-10-31T20:36:31;99399.97;;;12.44;100.00
27984;BME280;15317;50.360;8.726;2022-10-31T20:40:34;99403.38;;;12.46;100.00
27984;BME280;15317;50.360;8.726;2022-10-31T20:44:36;99413.25;;;12.47;100.00
27984;BME280;15317;50.360;8.726;2022-10-31T20:48:38;99399.28;;;12.50;100.00
27984;BME280;15317;50.360;8.726;2022-10-31T20:52:42;99399.66;;;12.47;100.00
27984;BME280;15317;50.360;8.726;2022-10-31T20:56:44;99405.09;;;12.47;100.00
27984;BME280;15317;50.360;8.726;2022-10-31T21:00:46;99400.66;;;12.46;100.00
27984;BME280;15317;50.360;8.726;2022-10-31T21:04:48;99388.59;;;12.40;100.00
27984;BME280;15317;50.360;8.726;2022-10-31T21:08:52;99397.25;;;12.36;100.00
27984;BME280;15317;50.360;8.726;2022-10-31T21:12:54;99392.50;;;12.30;100.00
27984;BME280;15317;50.360;8.726;2022-10-31T21:16:56;99395.75;;;12.25;100.00
27984;BME280;15317;50.360;8.726;2022-10-31T21:20:58;99400.03;;;12.19;100.00
27984;BME280;15317;50.360;8.726;2022-10-31T21:25:02;99395.94;;;12.15;100.00
27984;BME280;15317;50.360;8.726;2022-10-31T21:29:05;99398.34;;;12.10;100.00
27984;BME280;15317;50.360;8.726;2022-10-31T21:33:07;99389.00;;;12.05;100.00